Aviation Digital Data Service (ADDS)

Output produced by METARs form (0017 UTC 19 August 2019)
found at http://www.aviationweather.gov/metar/data/
 
Forecast for: KRVS (TULSA , OK, US)
Text: KRVS 182321Z 1900/1924 17006KT P6SM SCT050 SCT250
Forecast period: 0000 UTC 19 August 2019 to 0000 UTC 20 August 2019
Forecast type: FROM: standard forecast or significant change
Winds: from the S (170 degrees) at 7 MPH (6 knots; 3.1 m/s)
Visibility: 6 or more miles 10+ km)
Ceiling: at least 12,000 feet AGL
Clouds: scattered clouds at 5000 feet AGL
scattered clouds at 25000 feet AGL
Weather: no significant weather forecast for this period